Time;durP1;ratioP1;P1;durP2;ratioP2;P2;SDS_P1;SDS_P2;PMS_P1;PMS_P2;Temp;Humidity;BMP_temperature;BMP_pressure;BME280_temperature;BME280_humidity;BME280_pressure;Samples;Min_cycle;Max_cycle;Signal;HPM_P1;HPM_P2
2021/06/18 00:02:15;;;;;;;14.15;12.65;;;;;;;;;;5019221;28;20420;-80
2021/06/18 00:04:42;;;;;;;14.48;12.85;;;;;;;;;;5021464;28;20405;-81
2021/06/18 00:07:08;;;;;;;14.25;12.15;;;;;;;;;;5020549;28;20412;-81
2021/06/18 00:09:36;;;;;;;15.20;12.98;;;;;;;;;;5022429;28;20408;-81
2021/06/18 00:12:04;;;;;;;15.27;12.23;;;;;;;;;;5021980;28;20401;-81
2021/06/18 00:14:32;;;;;;;15.48;12.75;;;;;;;;;;5020638;28;20409;-80
2021/06/18 00:16:59;;;;;;;14.65;12.95;;;;;;;;;;5016184;28;20413;-82
2021/06/18 00:19:26;;;;;;;15.98;12.68;;;;;;;;;;5016582;28;20411;-81
2021/06/18 00:21:53;;;;;;;14.45;12.00;;;;;;;;;;5020021;28;20884;-81
2021/06/18 00:24:20;;;;;;;14.40;12.80;;;;;;;;;;5021291;28;20441;-82
2021/06/18 00:26:47;;;;;;;13.90;12.35;;;;;;;;;;5020998;28;20407;-81
2021/06/18 00:29:14;;;;;;;15.82;11.93;;;;;;;;;;5020056;28;20412;-82
2021/06/18 00:31:43;;;;;;;14.90;12.23;;;;;;;;;;5021022;28;20424;-82
2021/06/18 00:34:10;;;;;;;12.48;10.70;;;;;;;;;;5019527;28;20437;-82
2021/06/18 00:36:37;;;;;;;14.40;11.60;;;;;;;;;;5021349;28;20405;-81
2021/06/18 00:39:04;;;;;;;13.27;11.00;;;;;;;;;;5021838;28;20409;-81
2021/06/18 00:41:31;;;;;;;12.37;10.73;;;;;;;;;;5019541;28;20413;-82
2021/06/18 00:43:58;;;;;;;12.73;10.27;;;;;;;;;;5021850;28;20401;-80
2021/06/18 00:46:25;;;;;;;12.10;9.27;;;;;;;;;;5020287;28;20412;-82
2021/06/18 00:48:56;;;;;;;10.57;9.00;;;;;;;;;;5021140;28;20885;-80
2021/06/18 00:51:26;;;;;;;11.68;8.50;;;;;;;;;;5019683;28;20425;-81
2021/06/18 00:53:53;;;;;;;10.60;8.82;;;;;;;;;;5019661;28;21033;-82
2021/06/18 00:56:21;;;;;;;12.87;9.00;;;;;;;;;;5021010;28;20412;-82
2021/06/18 00:58:48;;;;;;;16.37;11.20;;;;;;;;;;5021124;28;20401;-82
2021/06/18 01:01:15;;;;;;;19.27;11.48;;;;;;;;;;5021556;28;21172;-82
2021/06/18 01:03:42;;;;;;;13.40;11.77;;;;;;;;;;5021862;28;20435;-82
2021/06/18 01:06:18;;;;;;;14.23;11.82;;;;;;;;;;5020319;28;20894;-80
2021/06/18 01:08:54;;;;;;;15.60;12.32;;;;;;;;;;5019653;28;20919;-82
2021/06/18 01:11:31;;;;;;;16.15;12.68;;;;;;;;;;5018399;28;20433;-81
2021/06/18 01:14:03;;;;;;;14.63;12.50;;;;;;;;;;5024149;28;20401;-82
2021/06/18 01:16:36;;;;;;;14.82;12.35;;;;;;;;;;5022521;28;20414;-82
2021/06/18 01:19:09;;;;;;;15.93;13.15;;;;;;;;;;5024390;28;20413;-82
2021/06/18 01:21:40;;;;;;;15.35;13.00;;;;;;;;;;5025309;28;20405;-82
2021/06/18 01:24:29;;;;;;;13.98;12.45;;;;;;;;;;5026362;28;20400;-82
2021/06/18 01:27:23;;;;;;;15.18;12.55;;;;;;;;;;5033605;28;20393;-81
2021/06/18 01:29:56;;;;;;;15.30;12.15;;;;;;;;;;5030119;28;20401;-82
2021/06/18 01:32:30;;;;;;;14.13;11.93;;;;;;;;;;5022869;28;20409;-80
2021/06/18 01:34:58;;;;;;;13.80;12.23;;;;;;;;;;5024557;28;20405;-82
2021/06/18 01:37:28;;;;;;;13.30;11.87;;;;;;;;;;5025128;28;20405;-83
2021/06/18 01:39:58;;;;;;;16.65;12.60;;;;;;;;;;5024136;28;20405;-82
2021/06/18 01:42:27;;;;;;;13.57;12.18;;;;;;;;;;5024879;28;20936;-83
2021/06/18 01:44:57;;;;;;;13.63;12.27;;;;;;;;;;5024341;28;20980;-82
2021/06/18 01:47:25;;;;;;;14.00;12.52;;;;;;;;;;5024564;28;20405;-83
2021/06/18 01:49:53;;;;;;;16.38;12.57;;;;;;;;;;5024516;28;20488;-82
2021/06/18 01:52:22;;;;;;;14.20;12.70;;;;;;;;;;5025248;28;20425;-81
2021/06/18 01:54:51;;;;;;;13.93;12.37;;;;;;;;;;5024795;28;20431;-81
2021/06/18 01:57:20;;;;;;;13.57;12.10;;;;;;;;;;5028109;28;20401;-83
2021/06/18 01:59:50;;;;;;;12.27;10.98;;;;;;;;;;5028837;28;21102;-82
2021/06/18 02:02:20;;;;;;;11.85;10.55;;;;;;;;;;5026514;28;20401;-82
2021/06/18 02:04:48;;;;;;;12.10;10.85;;;;;;;;;;5028859;28;20404;-83
2021/06/18 02:07:16;;;;;;;12.27;10.60;;;;;;;;;;5025862;28;20895;-81
2021/06/18 02:09:46;;;;;;;12.40;10.27;;;;;;;;;;5028219;28;20415;-83
2021/06/18 02:12:15;;;;;;;12.20;10.52;;;;;;;;;;5027615;28;20440;-81
2021/06/18 02:14:42;;;;;;;11.63;10.35;;;;;;;;;;5028804;28;20424;-83
2021/06/18 02:17:11;;;;;;;11.05;9.95;;;;;;;;;;5027947;28;20412;-82
2021/06/18 02:19:41;;;;;;;11.05;9.95;;;;;;;;;;5029220;28;20402;-81
2021/06/18 02:22:11;;;;;;;11.25;10.10;;;;;;;;;;5024426;28;20412;-83
2021/06/18 02:24:39;;;;;;;11.73;10.52;;;;;;;;;;5028872;28;20408;-81
2021/06/18 02:27:08;;;;;;;12.10;10.83;;;;;;;;;;5027097;28;20398;-83
2021/06/18 02:29:35;;;;;;;12.02;10.70;;;;;;;;;;5024232;28;20415;-82
2021/06/18 02:32:06;;;;;;;10.40;9.02;;;;;;;;;;5024677;28;20428;-83
2021/06/18 02:34:34;;;;;;;10.57;9.48;;;;;;;;;;5028244;28;20484;-80
2021/06/18 02:37:03;;;;;;;11.35;8.32;;;;;;;;;;5028383;28;20900;-82
2021/06/18 02:39:30;;;;;;;10.40;8.68;;;;;;;;;;5021817;28;20432;-83
2021/06/18 02:41:57;;;;;;;9.37;8.17;;;;;;;;;;5026004;28;20401;-83
2021/06/18 02:44:24;;;;;;;9.32;8.00;;;;;;;;;;5022248;28;20409;-81
2021/06/18 02:46:59;;;;;;;8.77;7.80;;;;;;;;;;5025125;28;20895;-82
2021/06/18 02:49:39;;;;;;;8.50;7.60;;;;;;;;;;5024402;28;20873;-82
2021/06/18 02:52:11;;;;;;;9.20;7.93;;;;;;;;;;5020219;28;20452;-82
2021/06/18 02:54:43;;;;;;;8.85;7.32;;;;;;;;;;5020488;28;20769;-81
2021/06/18 02:57:17;;;;;;;8.38;7.38;;;;;;;;;;5023737;28;20463;-83
2021/06/18 02:59:51;;;;;;;7.80;7.03;;;;;;;;;;5023114;28;20410;-81
2021/06/18 03:02:23;;;;;;;8.13;7.35;;;;;;;;;;5019403;28;20452;-83
2021/06/18 03:04:55;;;;;;;8.35;7.45;;;;;;;;;;5024557;28;20739;-81
2021/06/18 03:07:28;;;;;;;11.18;7.45;;;;;;;;;;5021685;28;20417;-82
2021/06/18 03:09:59;;;;;;;8.05;6.80;;;;;;;;;;5023557;28;20408;-81
2021/06/18 03:12:27;;;;;;;7.97;6.60;;;;;;;;;;5024597;28;20490;-82
2021/06/18 03:14:58;;;;;;;7.97;6.40;;;;;;;;;;5024734;28;20449;-80
2021/06/18 03:17:26;;;;;;;7.50;6.80;;;;;;;;;;5024156;28;20413;-80
2021/06/18 03:19:56;;;;;;;7.53;6.80;;;;;;;;;;5025091;28;20456;-81
2021/06/18 03:22:26;;;;;;;9.07;7.35;;;;;;;;;;5020777;28;20401;-82
2021/06/18 03:24:55;;;;;;;7.63;6.80;;;;;;;;;;5021446;28;21019;-82
2021/06/18 03:27:23;;;;;;;8.20;6.70;;;;;;;;;;5020753;28;20401;-81
2021/06/18 03:29:53;;;;;;;7.63;6.80;;;;;;;;;;5021294;28;20409;-81
2021/06/18 03:32:20;;;;;;;8.53;6.77;;;;;;;;;;5022425;28;20432;-81
2021/06/18 03:34:48;;;;;;;10.23;7.13;;;;;;;;;;5024318;28;20906;-82
2021/06/18 03:37:15;;;;;;;7.45;6.70;;;;;;;;;;5022012;28;20401;-81
2021/06/18 03:39:44;;;;;;;7.95;7.07;;;;;;;;;;5023863;28;20398;-82
2021/06/18 03:42:13;;;;;;;7.30;6.53;;;;;;;;;;5023566;28;20412;-83
2021/06/18 03:44:40;;;;;;;8.25;6.63;;;;;;;;;;5023660;28;20413;-82
2021/06/18 03:47:08;;;;;;;7.68;6.85;;;;;;;;;;5024240;28;20405;-82
2021/06/18 03:49:37;;;;;;;7.55;6.80;;;;;;;;;;5023786;28;20412;-82
2021/06/18 03:52:04;;;;;;;8.00;7.20;;;;;;;;;;5024393;28;20429;-82
2021/06/18 03:54:33;;;;;;;8.20;6.20;;;;;;;;;;5023695;28;20394;-81
2021/06/18 03:57:02;;;;;;;8.07;6.60;;;;;;;;;;5024449;28;20409;-82
2021/06/18 03:59:32;;;;;;;7.80;6.95;;;;;;;;;;5021104;28;20409;-81
2021/06/18 04:02:00;;;;;;;7.40;6.53;;;;;;;;;;5024150;28;20416;-82
2021/06/18 04:04:31;;;;;;;7.93;7.13;;;;;;;;;;5018635;28;20431;-80
2021/06/18 04:06:59;;;;;;;7.87;6.67;;;;;;;;;;5019186;28;20429;-81
2021/06/18 04:09:26;;;;;;;7.50;6.75;;;;;;;;;;5018725;28;20413;-82
2021/06/18 04:11:53;;;;;;;7.25;6.55;;;;;;;;;;5022676;28;20428;-82
2021/06/18 04:14:22;;;;;;;10.57;6.90;;;;;;;;;;5022890;28;20394;-82
2021/06/18 04:16:49;;;;;;;9.07;6.63;;;;;;;;;;5021782;28;20412;-82
2021/06/18 04:19:16;;;;;;;8.18;6.88;;;;;;;;;;5012829;28;20423;-82
2021/06/18 04:21:44;;;;;;;8.68;7.53;;;;;;;;;;5022661;28;20405;-82
2021/06/18 04:24:12;;;;;;;7.43;6.30;;;;;;;;;;5021999;28;20409;-82
2021/06/18 04:26:40;;;;;;;8.60;6.47;;;;;;;;;;5022251;28;20403;-82
2021/06/18 04:29:07;;;;;;;7.45;6.22;;;;;;;;;;5021810;28;20491;-80
2021/06/18 04:31:36;;;;;;;7.18;6.05;;;;;;;;;;5022514;28;20424;-82
2021/06/18 04:34:06;;;;;;;7.03;6.32;;;;;;;;;;5021892;28;20412;-82
2021/06/18 04:36:33;;;;;;;9.38;6.90;;;;;;;;;;5022944;28;20402;-82
2021/06/18 04:39:00;;;;;;;8.50;7.57;;;;;;;;;;5022745;28;20405;-81
2021/06/18 04:41:27;;;;;;;10.70;7.97;;;;;;;;;;5022181;28;20903;-81
2021/06/18 04:43:54;;;;;;;9.30;7.32;;;;;;;;;;5023087;28;20451;-82
2021/06/18 04:46:21;;;;;;;7.40;6.70;;;;;;;;;;5021337;28;20480;-81
2021/06/18 04:48:50;;;;;;;9.50;8.27;;;;;;;;;;5022781;28;20397;-82
2021/06/18 04:51:17;;;;;;;10.10;8.20;;;;;;;;;;5021834;28;20494;-82
2021/06/18 04:53:44;;;;;;;13.38;8.55;;;;;;;;;;5023022;28;20401;-82
2021/06/18 04:56:12;;;;;;;9.18;8.35;;;;;;;;;;5021180;28;20413;-81
2021/06/18 04:58:39;;;;;;;10.70;9.38;;;;;;;;;;5022652;28;20401;-82
2021/06/18 05:01:07;;;;;;;11.52;9.82;;;;;;;;;;5019313;28;20908;-82
2021/06/18 05:03:34;;;;;;;11.00;9.90;;;;;;;;;;5020951;28;20440;-82
2021/06/18 05:06:04;;;;;;;11.47;10.27;;;;;;;;;;5021606;28;20402;-81
2021/06/18 05:08:31;;;;;;;12.00;10.68;;;;;;;;;;5022100;28;20405;-83
2021/06/18 05:10:58;;;;;;;13.05;11.50;;;;;;;;;;5021460;28;20420;-83
2021/06/18 05:13:25;;;;;;;12.43;11.05;;;;;;;;;;5021334;28;20409;-83
2021/06/18 05:15:52;;;;;;;13.07;11.70;;;;;;;;;;5021819;28;20904;-83
2021/06/18 05:18:19;;;;;;;13.77;11.63;;;;;;;;;;5020938;28;20398;-84
2021/06/18 05:20:46;;;;;;;14.27;12.35;;;;;;;;;;5028011;28;20436;-84
2021/06/18 05:23:14;;;;;;;12.38;11.05;;;;;;;;;;5029400;28;20419;-84
2021/06/18 05:25:41;;;;;;;13.13;10.88;;;;;;;;;;5028297;28;20401;-83
2021/06/18 05:28:08;;;;;;;13.70;12.30;;;;;;;;;;5031358;28;20915;-84
2021/06/18 05:30:34;;;;;;;13.45;12.13;;;;;;;;;;5028053;28;20404;-83
2021/06/18 05:33:01;;;;;;;16.38;13.32;;;;;;;;;;5030545;28;20905;-83
2021/06/18 05:35:28;;;;;;;16.55;13.43;;;;;;;;;;5028246;28;20837;-84
2021/06/18 05:37:56;;;;;;;16.55;14.80;;;;;;;;;;5023348;28;20403;-82
2021/06/18 05:40:24;;;;;;;16.67;14.70;;;;;;;;;;5024326;28;20417;-83
2021/06/18 05:42:51;;;;;;;19.17;14.27;;;;;;;;;;5022457;28;20415;-83
2021/06/18 05:45:18;;;;;;;17.30;13.27;;;;;;;;;;5024096;28;20773;-83
2021/06/18 05:47:45;;;;;;;16.50;13.35;;;;;;;;;;5022933;28;20784;-82
2021/06/18 05:50:12;;;;;;;28.83;14.52;;;;;;;;;;5026765;28;20405;-83
2021/06/18 05:52:39;;;;;;;20.35;13.45;;;;;;;;;;5025971;28;20421;-83
2021/06/18 05:55:08;;;;;;;16.92;13.75;;;;;;;;;;5026433;28;20420;-82
2021/06/18 05:57:38;;;;;;;14.52;12.95;;;;;;;;;;5020965;28;20800;-81
2021/06/18 06:00:06;;;;;;;14.55;13.05;;;;;;;;;;5025878;28;20394;-82
2021/06/18 06:02:33;;;;;;;14.25;12.85;;;;;;;;;;5028479;28;20399;-84
2021/06/18 06:05:00;;;;;;;13.88;12.32;;;;;;;;;;5025250;28;20938;-83
2021/06/18 06:07:27;;;;;;;15.55;13.50;;;;;;;;;;5021177;28;20410;-83
2021/06/18 06:09:54;;;;;;;15.38;13.77;;;;;;;;;;5024130;28;20405;-82
2021/06/18 06:12:21;;;;;;;18.10;15.63;;;;;;;;;;5024677;28;20421;-83
2021/06/18 06:14:49;;;;;;;16.52;14.55;;;;;;;;;;5024116;28;20419;-83
2021/06/18 06:17:16;;;;;;;15.75;14.15;;;;;;;;;;5024086;28;20471;-83
2021/06/18 06:19:43;;;;;;;20.42;14.20;;;;;;;;;;5025068;28;20401;-83
2021/06/18 06:22:10;;;;;;;15.00;13.27;;;;;;;;;;5023882;28;20880;-81
2021/06/18 06:24:37;;;;;;;15.93;13.13;;;;;;;;;;5024254;28;20397;-83
2021/06/18 06:27:04;;;;;;;15.00;13.40;;;;;;;;;;5024623;28;20408;-83
2021/06/18 06:29:31;;;;;;;14.38;12.85;;;;;;;;;;5024561;28;20417;-83
2021/06/18 06:31:59;;;;;;;14.43;12.57;;;;;;;;;;5015789;28;20415;-83
2021/06/18 06:34:26;;;;;;;13.05;11.70;;;;;;;;;;5023613;28;20431;-83
2021/06/18 06:36:53;;;;;;;12.95;10.70;;;;;;;;;;5021944;28;20398;-83
2021/06/18 06:39:20;;;;;;;12.18;9.57;;;;;;;;;;5019490;28;20407;-84
2021/06/18 06:41:47;;;;;;;9.70;8.60;;;;;;;;;;5024783;28;20413;-83
2021/06/18 06:44:14;;;;;;;10.35;8.48;;;;;;;;;;5024289;28;20410;-82
2021/06/18 06:46:41;;;;;;;8.82;7.47;;;;;;;;;;5022823;28;20424;-81
2021/06/18 06:49:09;;;;;;;7.93;6.78;;;;;;;;;;5019173;28;20409;-82
2021/06/18 06:51:36;;;;;;;9.50;7.07;;;;;;;;;;5022379;28;20409;-81
2021/06/18 06:54:03;;;;;;;8.25;6.80;;;;;;;;;;5021581;28;20404;-83
2021/06/18 06:56:31;;;;;;;7.63;6.82;;;;;;;;;;5023743;28;20397;-82
2021/06/18 06:58:58;;;;;;;8.53;7.30;;;;;;;;;;5021411;28;20452;-83
2021/06/18 07:01:25;;;;;;;8.35;7.53;;;;;;;;;;5022101;28;20413;-82
2021/06/18 07:03:52;;;;;;;7.63;6.90;;;;;;;;;;5021070;28;20475;-82
2021/06/18 07:06:21;;;;;;;8.02;7.20;;;;;;;;;;5022691;28;20881;-83
2021/06/18 07:08:47;;;;;;;8.23;7.35;;;;;;;;;;5023641;28;20731;-83
2021/06/18 07:11:15;;;;;;;9.15;7.82;;;;;;;;;;5023085;28;20409;-83
2021/06/18 07:13:42;;;;;;;7.93;7.15;;;;;;;;;;5023083;28;20429;-83
2021/06/18 07:16:11;;;;;;;8.55;7.40;;;;;;;;;;5022367;28;20401;-82
2021/06/18 07:18:38;;;;;;;7.90;6.80;;;;;;;;;;5023156;28;20405;-82
2021/06/18 07:21:05;;;;;;;8.40;7.57;;;;;;;;;;5021852;28;20432;-82
2021/06/18 07:23:34;;;;;;;7.80;7.00;;;;;;;;;;5023614;28;20601;-82
2021/06/18 07:26:01;;;;;;;9.02;7.85;;;;;;;;;;5021700;28;20441;-83
2021/06/18 07:28:28;;;;;;;9.20;8.05;;;;;;;;;;5020161;28;20436;-83
2021/06/18 07:30:55;;;;;;;9.80;7.85;;;;;;;;;;5022656;28;20412;-82
2021/06/18 07:33:22;;;;;;;8.93;7.75;;;;;;;;;;5023176;28;20517;-83
2021/06/18 07:35:49;;;;;;;9.90;7.47;;;;;;;;;;5020934;28;20420;-83
2021/06/18 07:38:15;;;;;;;7.75;7.05;;;;;;;;;;5023098;28;20405;-83
2021/06/18 07:40:44;;;;;;;9.27;7.00;;;;;;;;;;5022821;28;20415;-83
2021/06/18 07:43:11;;;;;;;7.53;6.47;;;;;;;;;;5021300;28;20881;-83
2021/06/18 07:45:38;;;;;;;8.40;6.25;;;;;;;;;;5022312;28;20412;-83
2021/06/18 07:48:09;;;;;;;9.05;6.10;;;;;;;;;;5022714;28;20423;-82
2021/06/18 07:50:38;;;;;;;7.10;6.40;;;;;;;;;;5022345;28;20405;-83
2021/06/18 07:53:05;;;;;;;6.68;6.00;;;;;;;;;;5020288;28;20504;-83
2021/06/18 07:55:32;;;;;;;7.53;6.53;;;;;;;;;;5021959;28;20416;-83
2021/06/18 07:58:00;;;;;;;7.13;6.43;;;;;;;;;;5019457;28;20409;-82
2021/06/18 08:00:27;;;;;;;6.50;5.90;;;;;;;;;;5022130;28;20867;-83
2021/06/18 08:02:54;;;;;;;6.82;6.15;;;;;;;;;;5021300;28;20401;-83
2021/06/18 08:05:21;;;;;;;6.80;6.20;;;;;;;;;;5021009;28;20401;-83
2021/06/18 08:07:49;;;;;;;6.72;6.13;;;;;;;;;;5021626;28;21090;-83
2021/06/18 08:10:18;;;;;;;6.95;6.25;;;;;;;;;;5022233;28;20401;-83
2021/06/18 08:12:50;;;;;;;7.00;6.30;;;;;;;;;;5022144;28;20439;-83
2021/06/18 08:15:19;;;;;;;6.90;6.27;;;;;;;;;;5020003;28;20410;-82
2021/06/18 08:17:47;;;;;;;6.70;6.00;;;;;;;;;;5013577;28;20419;-83
2021/06/18 08:20:16;;;;;;;6.80;6.20;;;;;;;;;;5020668;28;20409;-83
2021/06/18 08:22:43;;;;;;;7.45;6.43;;;;;;;;;;5022335;28;20412;-83
2021/06/18 08:25:10;;;;;;;7.97;6.40;;;;;;;;;;5021439;28;20494;-83
2021/06/18 08:27:38;;;;;;;8.63;6.20;;;;;;;;;;5020407;28;21564;-83
2021/06/18 08:30:08;;;;;;;7.57;6.50;;;;;;;;;;5021510;28;20398;-82
2021/06/18 08:32:36;;;;;;;7.72;6.50;;;;;;;;;;5020400;28;20421;-83
2021/06/18 08:35:03;;;;;;;7.43;6.32;;;;;;;;;;5021909;28;20405;-82
2021/06/18 08:37:30;;;;;;;7.47;6.60;;;;;;;;;;5018623;28;20475;-82
2021/06/18 08:39:57;;;;;;;6.75;6.18;;;;;;;;;;5019465;28;20397;-82
2021/06/18 08:42:25;;;;;;;6.15;5.55;;;;;;;;;;5011082;28;21418;-83
2021/06/18 08:44:52;;;;;;;7.00;6.07;;;;;;;;;;5016228;28;20814;-83
2021/06/18 08:47:19;;;;;;;8.20;5.80;;;;;;;;;;5019436;28;20404;-82
2021/06/18 08:49:47;;;;;;;6.43;5.80;;;;;;;;;;5018301;28;20420;-82
2021/06/18 08:52:15;;;;;;;6.20;5.68;;;;;;;;;;5015596;28;20509;-82
2021/06/18 08:54:43;;;;;;;6.53;5.90;;;;;;;;;;5017342;28;20405;-83
2021/06/18 08:57:12;;;;;;;7.05;6.30;;;;;;;;;;5015556;28;20500;-82
2021/06/18 08:59:39;;;;;;;21.52;8.50;;;;;;;;;;5016517;28;20500;-83
2021/06/18 09:02:07;;;;;;;7.10;6.40;;;;;;;;;;5015633;28;20397;-82
2021/06/18 09:04:34;;;;;;;6.47;5.95;;;;;;;;;;5015294;28;20426;-82
2021/06/18 09:07:02;;;;;;;7.23;6.37;;;;;;;;;;5014012;28;20413;-82
2021/06/18 09:09:31;;;;;;;7.15;6.38;;;;;;;;;;5017542;28;20408;-83
2021/06/18 09:12:00;;;;;;;7.07;6.38;;;;;;;;;;5018722;28;20480;-83
2021/06/18 09:14:31;;;;;;;7.03;6.35;;;;;;;;;;5013950;28;20429;-82
2021/06/18 09:17:13;;;;;;;8.45;6.70;;;;;;;;;;5014235;28;20398;-83
2021/06/18 09:19:44;;;;;;;12.00;6.50;;;;;;;;;;5015309;28;20514;-83
2021/06/18 09:22:15;;;;;;;6.78;5.97;;;;;;;;;;5013274;28;20419;-83
2021/06/18 09:24:46;;;;;;;6.80;5.97;;;;;;;;;;5016291;28;20404;-83
2021/06/18 09:27:13;;;;;;;7.93;6.57;;;;;;;;;;5015459;28;20432;-83
2021/06/18 09:29:42;;;;;;;10.70;6.63;;;;;;;;;;5014181;28;20413;-83
2021/06/18 09:32:12;;;;;;;8.50;7.07;;;;;;;;;;5017827;28;20488;-83
2021/06/18 09:34:59;;;;;;;7.63;6.93;;;;;;;;;;5014289;28;20430;-83
2021/06/18 09:37:34;;;;;;;6.70;6.10;;;;;;;;;;5013433;28;20406;-84
2021/06/18 09:40:09;;;;;;;7.27;6.17;;;;;;;;;;5016094;28;20504;-83
2021/06/18 09:42:38;;;;;;;6.30;5.70;;;;;;;;;;5019116;28;20417;-83
2021/06/18 09:45:09;;;;;;;6.57;5.95;;;;;;;;;;5015704;28;20432;-83
2021/06/18 09:47:37;;;;;;;6.50;5.95;;;;;;;;;;5017840;28;21205;-83
2021/06/18 09:50:06;;;;;;;6.82;6.13;;;;;;;;;;5015670;28;20997;-83
2021/06/18 09:52:37;;;;;;;7.50;6.70;;;;;;;;;;5013834;28;20401;-83
2021/06/18 09:55:05;;;;;;;7.28;6.57;;;;;;;;;;5018169;28;20413;-82
2021/06/18 09:57:40;;;;;;;7.38;6.57;;;;;;;;;;5017198;28;20410;-83
2021/06/18 10:00:09;;;;;;;6.70;6.15;;;;;;;;;;5017699;28;20495;-83
2021/06/18 10:02:39;;;;;;;6.85;6.15;;;;;;;;;;5016746;28;21178;-82
2021/06/18 10:05:07;;;;;;;6.43;5.80;;;;;;;;;;5017281;28;20402;-82
2021/06/18 10:07:36;;;;;;;6.37;5.77;;;;;;;;;;5015798;28;20423;-82
2021/06/18 10:10:07;;;;;;;6.35;5.72;;;;;;;;;;5016605;28;20529;-82
2021/06/18 10:12:34;;;;;;;7.10;6.40;;;;;;;;;;5016970;28;20424;-83
2021/06/18 10:15:10;;;;;;;6.53;5.93;;;;;;;;;;5016964;28;20417;-83
2021/06/18 10:17:40;;;;;;;6.43;5.82;;;;;;;;;;5019420;28;20488;-82
2021/06/18 10:20:09;;;;;;;6.90;6.20;;;;;;;;;;5019677;28;20413;-82
2021/06/18 10:22:44;;;;;;;6.57;5.95;;;;;;;;;;5018561;28;20409;-83
2021/06/18 10:25:14;;;;;;;7.47;6.78;;;;;;;;;;5019915;28;20403;-82
2021/06/18 10:27:46;;;;;;;7.20;6.50;;;;;;;;;;5018502;28;20421;-82
2021/06/18 10:30:31;;;;;;;7.00;6.30;;;;;;;;;;5019992;28;20739;-82
2021/06/18 10:32:59;;;;;;;8.10;6.20;;;;;;;;;;5021699;28;20489;-82
2021/06/18 10:35:49;;;;;;;7.07;6.38;;;;;;;;;;5021248;28;20413;-82
2021/06/18 10:38:34;;;;;;;7.70;7.00;;;;;;;;;;5020147;28;20456;-82
2021/06/18 10:41:03;;;;;;;6.80;5.93;;;;;;;;;;5017203;28;20944;-82
2021/06/18 10:43:38;;;;;;;6.18;5.57;;;;;;;;;;5016549;28;20415;-82
2021/06/18 10:46:17;;;;;;;8.20;7.27;;;;;;;;;;5020777;28;20747;-82
2021/06/18 10:49:14;;;;;;;8.23;7.50;;;;;;;;;;5020233;28;20411;-82
2021/06/18 10:51:46;;;;;;;8.30;7.50;;;;;;;;;;4976457;28;20799;-82
2021/06/18 10:54:25;;;;;;;8.30;7.45;;;;;;;;;;5008929;28;20430;-83
2021/06/18 10:57:01;;;;;;;9.67;8.70;;;;;;;;;;5022384;28;20487;-82
2021/06/18 10:59:31;;;;;;;8.35;7.47;;;;;;;;;;5019237;28;20397;-82
2021/06/18 11:01:59;;;;;;;11.52;8.98;;;;;;;;;;5023970;28;20423;-82
2021/06/18 11:04:42;;;;;;;11.90;8.50;;;;;;;;;;5016759;28;20417;-82
2021/06/18 11:07:25;;;;;;;8.73;7.85;;;;;;;;;;5032572;28;20500;-82
2021/06/18 11:09:54;;;;;;;8.50;7.55;;;;;;;;;;5032594;28;20401;-81
2021/06/18 11:12:47;;;;;;;9.90;8.15;;;;;;;;;;5030434;28;20643;-82
2021/06/18 11:15:37;;;;;;;9.35;8.45;;;;;;;;;;5023937;28;20916;-82
2021/06/18 11:18:11;;;;;;;8.85;7.53;;;;;;;;;;5021697;28;20441;-82
2021/06/18 11:21:02;;;;;;;7.90;7.18;;;;;;;;;;5018162;28;20463;-82
2021/06/18 11:23:35;;;;;;;8.50;7.67;;;;;;;;;;5021324;28;20420;-82
2021/06/18 11:26:09;;;;;;;8.07;7.30;;;;;;;;;;5023773;28;20848;-82
2021/06/18 11:28:38;;;;;;;7.00;6.30;;;;;;;;;;5019670;28;20781;-82
2021/06/18 11:31:07;;;;;;;7.68;6.22;;;;;;;;;;5018432;28;20413;-82
2021/06/18 11:33:45;;;;;;;7.95;6.35;;;;;;;;;;5020016;28;20471;-83
2021/06/18 11:36:43;;;;;;;6.80;6.20;;;;;;;;;;5017919;28;20423;-82
2021/06/18 11:39:24;;;;;;;8.32;6.25;;;;;;;;;;5018244;28;20476;-82
2021/06/18 11:42:04;;;;;;;7.80;6.63;;;;;;;;;;5018299;28;20407;-82
2021/06/18 11:44:32;;;;;;;7.45;6.72;;;;;;;;;;5019103;28;20405;-82
2021/06/18 11:46:59;;;;;;;6.93;6.23;;;;;;;;;;5021298;28;20401;-82
2021/06/18 11:49:29;;;;;;;6.82;6.13;;;;;;;;;;5020770;28;20413;-83
2021/06/18 11:52:06;;;;;;;6.75;5.60;;;;;;;;;;5015343;28;20410;-82
2021/06/18 11:54:34;;;;;;;6.40;5.60;;;;;;;;;;5016339;28;20458;-85
2021/06/18 11:57:09;;;;;;;9.63;7.10;;;;;;;;;;5017186;28;20413;-84
2021/06/18 11:59:39;;;;;;;6.90;6.20;;;;;;;;;;5017397;28;20410;-84
2021/06/18 12:02:17;;;;;;;8.07;7.27;;;;;;;;;;5018200;28;20405;-84
2021/06/18 12:04:44;;;;;;;7.15;6.43;;;;;;;;;;4987503;28;20440;-84
2021/06/18 12:07:12;;;;;;;6.85;6.20;;;;;;;;;;4981763;28;20417;-83
2021/06/18 12:09:41;;;;;;;7.10;6.40;;;;;;;;;;4981234;28;20403;-83
2021/06/18 12:12:10;;;;;;;7.63;6.85;;;;;;;;;;4981164;28;20409;-83
2021/06/18 12:14:41;;;;;;;6.93;6.30;;;;;;;;;;4979361;28;20812;-82
2021/06/18 12:17:09;;;;;;;7.68;6.10;;;;;;;;;;4979182;28;20436;-83
2021/06/18 12:19:42;;;;;;;7.00;6.30;;;;;;;;;;4983819;28;20409;-83
2021/06/18 12:22:12;;;;;;;6.73;6.13;;;;;;;;;;4977352;28;20416;-85
2021/06/18 12:24:42;;;;;;;7.57;6.40;;;;;;;;;;4979121;28;21460;-83
2021/06/18 12:27:11;;;;;;;6.90;6.22;;;;;;;;;;4978952;28;20873;-84
2021/06/18 12:29:39;;;;;;;8.27;6.60;;;;;;;;;;4984194;28;20424;-82
2021/06/18 12:32:08;;;;;;;8.02;6.60;;;;;;;;;;4983582;28;20444;-83
2021/06/18 12:34:35;;;;;;;7.68;6.55;;;;;;;;;;4983900;28;21404;-83
2021/06/18 12:37:06;;;;;;;7.97;7.13;;;;;;;;;;4976614;28;20411;-83
2021/06/18 12:39:51;;;;;;;7.32;6.72;;;;;;;;;;4979051;28;20428;-84
2021/06/18 12:42:25;;;;;;;8.45;7.55;;;;;;;;;;4981562;28;20410;-83
2021/06/18 12:45:06;;;;;;;9.18;8.32;;;;;;;;;;4979474;28;20479;-84
2021/06/18 12:47:33;;;;;;;7.93;7.13;;;;;;;;;;4983213;28;20405;-82
2021/06/18 12:50:15;;;;;;;8.70;7.90;;;;;;;;;;4978573;28;20582;-84
2021/06/18 12:52:48;;;;;;;7.85;7.03;;;;;;;;;;4987492;28;20400;-85
2021/06/18 12:55:15;;;;;;;8.48;7.65;;;;;;;;;;4978443;28;20434;-85
2021/06/18 12:57:43;;;;;;;8.43;7.55;;;;;;;;;;4983117;28;20416;-84
2021/06/18 13:00:15;;;;;;;8.13;6.95;;;;;;;;;;4976896;28;20426;-85
2021/06/18 13:02:42;;;;;;;8.38;7.57;;;;;;;;;;4986666;28;20552;-84
2021/06/18 13:05:14;;;;;;;9.37;7.67;;;;;;;;;;5012593;28;20764;-84
2021/06/18 13:07:41;;;;;;;9.80;7.85;;;;;;;;;;5016470;28;20847;-84
2021/06/18 13:10:10;;;;;;;7.72;7.10;;;;;;;;;;5018543;28;20413;-85
2021/06/18 13:12:37;;;;;;;7.72;7.00;;;;;;;;;;5015525;28;20408;-85
2021/06/18 13:15:08;;;;;;;8.75;7.90;;;;;;;;;;5015742;28;20429;-84
2021/06/18 13:17:51;;;;;;;7.95;7.15;;;;;;;;;;5015920;28;20454;-82
2021/06/18 13:20:31;;;;;;;8.38;7.03;;;;;;;;;;5013829;28;20415;-83
2021/06/18 13:22:58;;;;;;;7.20;6.50;;;;;;;;;;5010273;28;21008;-82
2021/06/18 13:25:29;;;;;;;7.00;6.40;;;;;;;;;;5014696;28;20455;-82
2021/06/18 13:28:01;;;;;;;8.13;7.30;;;;;;;;;;5015174;28;20917;-82
2021/06/18 13:30:30;;;;;;;7.43;6.72;;;;;;;;;;5013648;28;20414;-82
2021/06/18 13:33:01;;;;;;;7.43;6.72;;;;;;;;;;5014134;28;20401;-83
2021/06/18 13:35:30;;;;;;;7.75;6.97;;;;;;;;;;5015097;28;20904;-83
2021/06/18 13:38:00;;;;;;;8.80;7.00;;;;;;;;;;5016330;28;20429;-83
2021/06/18 13:40:38;;;;;;;7.53;6.90;;;;;;;;;;5014328;28;21297;-82
2021/06/18 13:43:05;;;;;;;6.97;6.33;;;;;;;;;;5012808;28;20450;-84
2021/06/18 13:45:34;;;;;;;8.25;6.80;;;;;;;;;;5017291;28;20479;-84
2021/06/18 13:48:01;;;;;;;7.43;6.07;;;;;;;;;;5016248;28;20499;-83
2021/06/18 13:50:29;;;;;;;7.88;7.07;;;;;;;;;;5017197;28;20440;-83
2021/06/18 13:52:57;;;;;;;7.35;6.60;;;;;;;;;;5017515;28;20481;-83
2021/06/18 13:55:24;;;;;;;7.57;6.72;;;;;;;;;;5018982;28;20417;-83
2021/06/18 13:57:51;;;;;;;7.18;6.50;;;;;;;;;;5018778;28;20393;-83
2021/06/18 14:00:19;;;;;;;7.82;7.03;;;;;;;;;;5020471;28;20417;-82
2021/06/18 14:02:47;;;;;;;7.35;6.65;;;;;;;;;;5017183;28;20446;-83
2021/06/18 14:05:14;;;;;;;7.07;6.43;;;;;;;;;;5021705;28;20781;-83
2021/06/18 14:07:41;;;;;;;7.85;6.72;;;;;;;;;;5018047;28;20437;-83
2021/06/18 14:10:11;;;;;;;8.05;7.25;;;;;;;;;;5021383;28;20671;-84
2021/06/18 14:12:40;;;;;;;7.55;6.78;;;;;;;;;;5020898;28;20409;-87
2021/06/18 14:15:11;;;;;;;7.45;6.20;;;;;;;;;;5018422;28;20417;-83
2021/06/18 14:17:38;;;;;;;8.68;6.90;;;;;;;;;;5019567;28;20522;-83
2021/06/18 14:20:08;;;;;;;7.40;6.70;;;;;;;;;;5019833;28;20873;-82
2021/06/18 14:22:35;;;;;;;6.95;6.20;;;;;;;;;;5020832;28;20397;-82
2021/06/18 14:25:02;;;;;;;6.33;5.77;;;;;;;;;;5021735;28;20417;-83
2021/06/18 14:27:29;;;;;;;6.72;6.05;;;;;;;;;;5022477;28;20401;-82
2021/06/18 14:29:58;;;;;;;7.30;6.20;;;;;;;;;;5024105;28;20412;-83
2021/06/18 14:32:25;;;;;;;7.70;6.07;;;;;;;;;;5022712;28;20421;-83
2021/06/18 14:34:52;;;;;;;6.43;5.90;;;;;;;;;;5015548;28;20901;-83
2021/06/18 14:37:21;;;;;;;8.43;6.03;;;;;;;;;;5020740;28;20393;-83
2021/06/18 14:39:48;;;;;;;6.40;5.78;;;;;;;;;;5021956;28;20881;-83
2021/06/18 14:42:16;;;;;;;6.72;6.03;;;;;;;;;;5019759;28;20455;-83
2021/06/18 14:44:43;;;;;;;6.45;5.80;;;;;;;;;;5022515;28;20401;-82
2021/06/18 14:47:10;;;;;;;7.65;6.65;;;;;;;;;;5023938;28;21185;-82
2021/06/18 14:49:37;;;;;;;6.70;6.07;;;;;;;;;;5020584;28;20405;-82
2021/06/18 14:52:04;;;;;;;14.55;6.82;;;;;;;;;;5022037;28;20402;-83